Buoy 13570

sailwx.info

Track history (hours):
 
Tides and Currents Weather Stations Pressure Air Temp Water Temp Dewpoint Dewpoint Depression Visibility Wind Speed Wind Dir Waves Ship Positions

Drifting buoy 13570

Last reported at 2014-Oct-31 03:00 UTC. Time now 2014-Oct-31 05:40 UTC.
Position N 33°54' W 029°53'.

Barometer 1022.9 mb
Water temperature 22.3 ° C

Date/timePositionNaut miles runAvg speedWind from/ knotsBaromVisibWave heightAir tempDewpointWater temp
2014-Oct-31 03:00N 33°54' W 029°53'1 0.2 1022.9 22.3
2014-Oct-30 23:00N 33°54' W 029°54'0 0.4 1021.6 22.3
2014-Oct-30 22:00N 33°53' W 029°54'2 0.8 1020.9 22.4
2014-Oct-30 20:00N 33°53' W 029°52'1 0.6 1019.0 22.4
2014-Oct-30 19:00N 33°53' W 029°53'1 0.4 1017.8 22.4
2014-Oct-30 16:00N 33°53' W 029°51'0 0.0 1015.6 22.4
2014-Oct-30 15:00N 33°53' W 029°51'1 1.4 1015.3 22.4
2014-Oct-30 14:00N 33°54' W 029°50'0 0.0 1015.3 22.4
2014-Oct-30 13:00N 33°54' W 029°50'1 0.6 1015.3 22.4
2014-Oct-30 12:00N 33°54' W 029°50'0 0.3 1014.9 22.4
2014-Oct-30 11:00N 33°54' W 029°50'1 0.5 1014.3 22.4
2014-Oct-30 08:00N 33°56' W 029°50'1 0.6 1010.8 22.5
2014-Oct-30 07:00N 33°56' W 029°50'1 1.0 1010.1 22.5
2014-Oct-30 06:00N 33°57' W 029°50'0 0.3 1010.1 22.5
2014-Oct-30 05:00N 33°57' W 029°50'1 0.5 1009.2 22.6
2014-Oct-30 03:00N 33°58' W 029°50'3 0.6 1010.4 22.5
2014-Oct-29 23:00N 33°59' W 029°53'1 0.7 1011.9 22.6
2014-Oct-29 22:00N 33°59' W 029°52'0 0.0 1012.3 22.6
2014-Oct-29 19:00N 33°59' W 029°52'1 0.6 1012.1 22.6
2014-Oct-29 17:00N 34°00' W 029°52'1 0.8 1012.8 22.7
2014-Oct-29 16:00N 33°59' W 029°52'1 0.8 1013.2 22.7
2014-Oct-29 15:00N 34°00' W 029°52'0 0.1 1013.5 22.8
2014-Oct-29 11:00N 34°00' W 029°52'0 0.0 1016.1 22.4
2014-Oct-29 10:00N 34°00' W 029°52'1 0.3 1016.1 22.4
2014-Oct-29 08:00N 34°00' W 029°52'0 0.4 1014.9 22.4
2014-Oct-29 07:00N 34°00' W 029°52'0 0.3 1014.9 22.4
2014-Oct-29 06:00N 34°00' W 029°52'0 0.1 1015.0 22.4
2014-Oct-29 05:00N 34°00' W 029°52'1 0.7 1015.2 22.4
2014-Oct-29 04:00N 34°01' W 029°52'1 0.2 1016.0 22.5
2014-Oct-29 00:00N 34°00' W 029°51'1 0.6 1018.1 22.5
2014-Oct-28 22:00N 33°59' W 029°53'0 0.0 1018.4 22.5
2014-Oct-28 21:00N 33°59' W 029°53'1 0.7 1018.3 22.5
2014-Oct-28 19:00N 33°59' W 029°51'0 0.0 1018.0 22.4
2014-Oct-28 18:00N 33°59' W 029°51'0 0.0 1017.9 22.4
2014-Oct-28 17:00N 33°59' W 029°51'2 2.4 1017.8 22.5
2014-Oct-28 16:00N 33°59' W 029°48'0 0.0 1017.9 22.5
2014-Oct-28 15:00N 33°59' W 029°48'1 0.4 1018.4 22.5
2014-Oct-28 12:00N 33°59' W 029°50'0 0.4 1020.0 22.4
2014-Oct-28 11:00N 33°59' W 029°50'2 0.5 1019.9 22.3
2014-Oct-28 08:00N 33°59' W 029°51'1 1.2 1018.8 22.3
2014-Oct-28 07:00N 33°57' W 029°51'1 0.8 1018.5 22.3
2014-Oct-28 06:00N 33°57' W 029°50'0 0.0 1018.2 22.3
2014-Oct-28 04:00N 33°57' W 029°50'1 0.2 1017.9 22.3
2014-Oct-28 01:00N 33°56' W 029°49'0 0.0 1017.8 22.3
2014-Oct-27 23:00N 33°56' W 029°49'1 0.6 1018.3 22.3
2014-Oct-27 22:00N 33°57' W 029°49'1 1.3 1018.2 22.3
2014-Oct-27 21:00N 33°56' W 029°49'1 0.6 1018.3 22.3
2014-Oct-27 19:00N 33°55' W 029°51'2 1.8 1017.3 22.3
2014-Oct-27 18:00N 33°56' W 029°49'0 0.0 1017.4 22.3
2014-Oct-27 17:00N 33°56' W 029°49'1 0.7 1017.5 22.3
2014-Oct-27 15:00N 33°57' W 029°47'1 1.1 1017.4 22.4
2014-Oct-27 14:00N 33°58' W 029°48'0 0.0 1018.0 22.3
2014-Oct-27 13:00N 33°58' W 029°48'0 0.3 1018.7 22.3
2014-Oct-27 12:00N 33°58' W 029°48'0 0.5 1018.8 22.3
2014-Oct-27 11:00N 33°57' W 029°48'0 0.0 1018.8 22.2
2014-Oct-27 10:00N 33°57' W 029°48'0 0.1 1019.1 22.2
2014-Oct-27 08:00N 33°57' W 029°48'0 0.3 1018.3 22.2
2014-Oct-27 07:00N 33°57' W 029°48'2 2.3 1018.3 22.2
2014-Oct-27 06:00N 33°57' W 029°45'0 0.3 1018.4 22.2
2014-Oct-27 05:00N 33°57' W 029°45'0 0.0 1018.2 22.2
2014-Oct-27 04:00N 33°57' W 029°45'1 0.4 1018.5 22.3
2014-Oct-27 02:00N 33°57' W 029°46'1 0.3 1019.2 22.3
2014-Oct-27 00:00N 33°58' W 029°45'1 0.9 1019.5 22.3
2014-Oct-26 23:00N 33°58' W 029°46'0 0.0 1019.7 22.3
2014-Oct-26 22:00N 33°58' W 029°46'2 0.8 1019.5 22.3
2014-Oct-26 20:00N 33°57' W 029°45'0 0.0 1018.8 22.3
2014-Oct-26 17:00N 33°56' W 029°45'2 1.5 1017.7 22.4
2014-Oct-26 16:00N 33°57' W 029°43'1 0.6 1017.9 22.3
2014-Oct-26 15:00N 33°57' W 029°44'0 0.0 1017.9 22.3
2014-Oct-26 14:00N 33°57' W 029°44'2 0.8 1018.4 22.3
2014-Oct-26 12:00N 33°56' W 029°43'0 0.0 1018.9 22.3
2014-Oct-26 10:00N 33°56' W 029°43'1 0.3 1018.5 22.2
2014-Oct-26 08:00N 33°56' W 029°43'2 1.7 1017.9 22.3
2014-Oct-26 07:00N 33°55' W 029°41'0 0.3 1017.6 22.3
2014-Oct-26 06:00N 33°55' W 029°41'1 0.4 1016.7 22.3
2014-Oct-26 04:00N 33°55' W 029°40'1 0.3 1017.4 22.3
2014-Oct-26 02:00N 33°56' W 029°40'2 1.5 1017.9 22.3
2014-Oct-26 01:00N 33°57' W 029°39'0 0.0 1018.1 22.3
2014-Oct-26 00:00N 33°57' W 029°39'1 0.9 1018.1 22.3
2014-Oct-25 23:00N 33°58' W 029°40'2 0.7 1018.1 22.3
2014-Oct-25 20:00N 33°56' W 029°40'0 0.3 1017.0 22.3
2014-Oct-25 19:00N 33°55' W 029°40'0 0.0 1016.7 22.4
2014-Oct-25 18:00N 33°55' W 029°40'0 0.4 1016.6 22.4
2014-Oct-25 17:00N 33°55' W 029°40'1 1.2 1016.7 22.4
2014-Oct-25 16:00N 33°55' W 029°39'1 0.3 1016.8 22.4
2014-Oct-25 14:00N 33°55' W 029°39'1 1.2 1017.4 22.3
2014-Oct-25 13:00N 33°55' W 029°38'0 0.4 1018.0 22.3
2014-Oct-25 12:00N 33°55' W 029°37'0 0.0 1018.1 22.3
2014-Oct-25 11:00N 33°55' W 029°37'1 1.1 1017.8 22.2
2014-Oct-25 10:00N 33°55' W 029°38'1 0.5 1017.7 22.2
2014-Oct-25 08:00N 33°54' W 029°37'0 0.0 1016.3 22.2
2014-Oct-25 07:00N 33°54' W 029°37'0 0.2 1016.0 22.2
2014-Oct-25 06:00N 33°54' W 029°37'1 0.8 1016.0 22.2
2014-Oct-25 05:00N 33°55' W 029°36'0 0.0 1016.0 22.2
2014-Oct-25 04:00N 33°55' W 029°36'1 0.8 1016.2 22.2
2014-Oct-25 03:00N 33°55' W 029°36'1 0.1 1016.4 22.2
2014-Oct-24 23:00N 33°55' W 029°37'0 0.0 1017.4 22.3
2014-Oct-24 22:00N 33°55' W 029°37'2 0.7 1017.2 22.3
2014-Oct-24 19:00N 33°53' W 029°36'1 0.5 1015.7 22.4
2014-Oct-24 18:00N 33°53' W 029°36'1 1.1 1015.4 22.4
2014-Oct-24 17:00N 33°52' W 029°35'1 0.8 1014.9 22.4
2014-Oct-24 16:00N 33°52' W 029°34'1 0.4 1014.7 22.4
2014-Oct-24 14:00N 33°52' W 029°33'1 0.8 1015.2 22.3
2014-Oct-24 13:00N 33°53' W 029°32'0 0.2 1015.6 22.3
2014-Oct-24 12:00N 33°53' W 029°33'0 0.0 1015.9 22.3
2014-Oct-24 11:00N 33°53' W 029°33'1 0.5 1015.5 22.2
2014-Oct-24 08:00N 33°52' W 029°31'0 0.0 1013.6 22.2
2014-Oct-24 07:00N 33°52' W 029°31'2 1.9 1013.4 22.2
2014-Oct-24 06:00N 33°51' W 029°29'1 1.1 1012.8 22.2
2014-Oct-24 05:00N 33°52' W 029°30'0 0.3 1012.5 22.2
2014-Oct-24 04:00N 33°52' W 029°30'0 0.0 1012.7 22.2
2014-Oct-24 03:00N 33°52' W 029°30'0 0.0 1012.9 22.2
2014-Oct-24 02:00N 33°52' W 029°30'1 0.6 1012.7 22.3
2014-Oct-24 00:00N 33°53' W 029°29'1 1.1 1012.9 22.3
2014-Oct-23 23:00N 33°52' W 029°29'0 0.0 1013.1 22.3
2014-Oct-23 22:00N 33°52' W 029°29'1 0.6 1012.8 22.3
2014-Oct-23 20:00N 33°51' W 029°28'0 0.0 1011.4 22.3
2014-Oct-23 19:00N 33°51' W 029°28'0 0.4 1010.6 22.3
2014-Oct-23 18:00N 33°51' W 029°29'2 0.4 1010.1 22.3
2014-Oct-23 14:00N 33°51' W 029°27'1 0.8 1009.6 22.2
2014-Oct-23 13:00N 33°50' W 029°27'1 0.6 1009.8 22.2
2014-Oct-23 12:00N 33°50' W 029°27'0 0.0 1009.9 22.2
2014-Oct-23 11:00N 33°50' W 029°27'0 0.3 1010.1 22.2
2014-Oct-23 10:00N 33°50' W 029°26'0 0.0 1009.7 22.2
2014-Oct-23 07:00N 33°51' W 029°26'0 0.2 1009.2 22.2
2014-Oct-23 06:00N 33°50' W 029°27'0 0.3 1008.9 22.2
2014-Oct-23 05:00N 33°50' W 029°27'0 0.1 1009.3 22.2
2014-Oct-23 03:00N 33°50' W 029°27'2 0.4 1009.6 22.2
2014-Oct-22 22:00N 33°49' W 029°25'0 0.0 1009.6 22.2
2014-Oct-22 21:00N 33°49' W 029°25'1 0.3 1009.2 22.2
2014-Oct-22 19:00N 33°48' W 029°25'1 0.3 1008.1 22.3
2014-Oct-22 17:00N 33°49' W 029°25'0 0.4 1007.8 22.3
2014-Oct-22 16:00N 33°49' W 029°25'0 0.2 1007.3 22.3
2014-Oct-22 15:00N 33°49' W 029°25'1 0.3 1007.4 22.3
2014-Oct-22 13:00N 33°49' W 029°24'1 0.3 1007.7 22.3
2014-Oct-22 11:00N 33°49' W 029°25'1 0.3 1007.5 22.3
2014-Oct-22 09:00N 33°49' W 029°25'1 0.9 1005.9 22.2
2014-Oct-22 08:00N 33°50' W 029°24'0 0.3 1005.2 22.2
2014-Oct-22 07:00N 33°49' W 029°24'0 0.2 1004.7 22.2
2014-Oct-22 05:00N 33°49' W 029°24'0 0.1 1004.4 22.2
2014-Oct-22 03:00N 33°50' W 029°24'2 0.7 1004.5 22.2
2014-Oct-22 00:00N 33°48' W 029°22'0 0.1 1004.7 22.2
2014-Oct-21 23:00N 33°48' W 029°22'0 0.0 1005.0 22.2
2014-Oct-21 22:00N 33°48' W 029°22'1 1.1 1004.7 22.2
2014-Oct-21 21:00N 33°49' W 029°21'1 1.4 1003.9 22.2
2014-Oct-21 20:00N 33°49' W 029°19'0 0.2 1003.3 22.2
2014-Oct-21 19:00N 33°50' W 029°19'1 0.5 1002.8 22.2
2014-Oct-21 17:00N 33°50' W 029°18'1 0.1 1003.1 22.2
2014-Oct-21 12:00N 33°50' W 029°18'3 1.1 1007.0 22.2
2014-Oct-21 09:00N 33°51' W 029°14'0 0.0 1007.7 22.2
2014-Oct-21 08:00N 33°51' W 029°14'0 0.4 1007.9 22.2
2014-Oct-21 07:00N 33°52' W 029°14'1 0.5 1008.0 22.3
2014-Oct-21 06:00N 33°52' W 029°14'1 1.3 1008.2 22.3
2014-Oct-21 05:00N 33°52' W 029°13'0 0.3 1008.5 22.3
2014-Oct-21 04:00N 33°52' W 029°12'   1009.1 22.4
Track history (hours):
 
Tides and Currents Weather Stations Pressure Air Temp Water Temp Dewpoint Dewpoint Depression Visibility Wind Speed Wind Dir Waves Ship Positions

Drifting buoy 13570

Last reported at 2014-Oct-31 03:00 UTC. Time now 2014-Oct-31 05:40 UTC.
Position N 33°54' W 029°53'.

Barometer 1022.9 mb
Water temperature 22.3 ° C

Date/timePositionNaut miles runAvg speedWind from/ knotsBaromVisibWave heightAir tempDewpointWater temp
2014-Oct-31 03:00N 33°54' W 029°53'1 0.2 1022.9 22.3
2014-Oct-30 23:00N 33°54' W 029°54'0 0.4 1021.6 22.3
2014-Oct-30 22:00N 33°53' W 029°54'2 0.8 1020.9 22.4
2014-Oct-30 20:00N 33°53' W 029°52'1 0.6 1019.0 22.4
2014-Oct-30 19:00N 33°53' W 029°53'1 0.4 1017.8 22.4
2014-Oct-30 16:00N 33°53' W 029°51'0 0.0 1015.6 22.4
2014-Oct-30 15:00N 33°53' W 029°51'1 1.4 1015.3 22.4
2014-Oct-30 14:00N 33°54' W 029°50'0 0.0 1015.3 22.4
2014-Oct-30 13:00N 33°54' W 029°50'1 0.6 1015.3 22.4
2014-Oct-30 12:00N 33°54' W 029°50'0 0.3 1014.9 22.4
2014-Oct-30 11:00N 33°54' W 029°50'1 0.5 1014.3 22.4
2014-Oct-30 08:00N 33°56' W 029°50'1 0.6 1010.8 22.5
2014-Oct-30 07:00N 33°56' W 029°50'1 1.0 1010.1 22.5
2014-Oct-30 06:00N 33°57' W 029°50'0 0.3 1010.1 22.5
2014-Oct-30 05:00N 33°57' W 029°50'1 0.5 1009.2 22.6
2014-Oct-30 03:00N 33°58' W 029°50'3 0.6 1010.4 22.5
2014-Oct-29 23:00N 33°59' W 029°53'1 0.7 1011.9 22.6
2014-Oct-29 22:00N 33°59' W 029°52'0 0.0 1012.3 22.6
2014-Oct-29 19:00N 33°59' W 029°52'1 0.6 1012.1 22.6
2014-Oct-29 17:00N 34°00' W 029°52'1 0.8 1012.8 22.7
2014-Oct-29 16:00N 33°59' W 029°52'1 0.8 1013.2 22.7
2014-Oct-29 15:00N 34°00' W 029°52'0 0.1 1013.5 22.8
2014-Oct-29 11:00N 34°00' W 029°52'0 0.0 1016.1 22.4
2014-Oct-29 10:00N 34°00' W 029°52'1 0.3 1016.1 22.4
2014-Oct-29 08:00N 34°00' W 029°52'0 0.4 1014.9 22.4
2014-Oct-29 07:00N 34°00' W 029°52'0 0.3 1014.9 22.4
2014-Oct-29 06:00N 34°00' W 029°52'0 0.1 1015.0 22.4
2014-Oct-29 05:00N 34°00' W 029°52'1 0.7 1015.2 22.4
2014-Oct-29 04:00N 34°01' W 029°52'1 0.2 1016.0 22.5
2014-Oct-29 00:00N 34°00' W 029°51'1 0.6 1018.1 22.5
2014-Oct-28 22:00N 33°59' W 029°53'0 0.0 1018.4 22.5
2014-Oct-28 21:00N 33°59' W 029°53'1 0.7 1018.3 22.5
2014-Oct-28 19:00N 33°59' W 029°51'0 0.0 1018.0 22.4
2014-Oct-28 18:00N 33°59' W 029°51'0 0.0 1017.9 22.4
2014-Oct-28 17:00N 33°59' W 029°51'2 2.4 1017.8 22.5
2014-Oct-28 16:00N 33°59' W 029°48'0 0.0 1017.9 22.5
2014-Oct-28 15:00N 33°59' W 029°48'1 0.4 1018.4 22.5
2014-Oct-28 12:00N 33°59' W 029°50'0 0.4 1020.0 22.4
2014-Oct-28 11:00N 33°59' W 029°50'2 0.5 1019.9 22.3
2014-Oct-28 08:00N 33°59' W 029°51'1 1.2 1018.8 22.3
2014-Oct-28 07:00N 33°57' W 029°51'1 0.8 1018.5 22.3
2014-Oct-28 06:00N 33°57' W 029°50'0 0.0 1018.2 22.3
2014-Oct-28 04:00N 33°57' W 029°50'1 0.2 1017.9 22.3
2014-Oct-28 01:00N 33°56' W 029°49'0 0.0 1017.8 22.3
2014-Oct-27 23:00N 33°56' W 029°49'1 0.6 1018.3 22.3
2014-Oct-27 22:00N 33°57' W 029°49'1 1.3 1018.2 22.3
2014-Oct-27 21:00N 33°56' W 029°49'1 0.6 1018.3 22.3
2014-Oct-27 19:00N 33°55' W 029°51'2 1.8 1017.3 22.3
2014-Oct-27 18:00N 33°56' W 029°49'0 0.0 1017.4 22.3
2014-Oct-27 17:00N 33°56' W 029°49'1 0.7 1017.5 22.3
2014-Oct-27 15:00N 33°57' W 029°47'1 1.1 1017.4 22.4
2014-Oct-27 14:00N 33°58' W 029°48'0 0.0 1018.0 22.3
2014-Oct-27 13:00N 33°58' W 029°48'0 0.3 1018.7 22.3
2014-Oct-27 12:00N 33°58' W 029°48'0 0.5 1018.8 22.3
2014-Oct-27 11:00N 33°57' W 029°48'0 0.0 1018.8 22.2
2014-Oct-27 10:00N 33°57' W 029°48'0 0.1 1019.1 22.2
2014-Oct-27 08:00N 33°57' W 029°48'0 0.3 1018.3 22.2
2014-Oct-27 07:00N 33°57' W 029°48'2 2.3 1018.3 22.2
2014-Oct-27 06:00N 33°57' W 029°45'0 0.3 1018.4 22.2
2014-Oct-27 05:00N 33°57' W 029°45'0 0.0 1018.2 22.2
2014-Oct-27 04:00N 33°57' W 029°45'1 0.4 1018.5 22.3
2014-Oct-27 02:00N 33°57' W 029°46'1 0.3 1019.2 22.3
2014-Oct-27 00:00N 33°58' W 029°45'1 0.9 1019.5 22.3
2014-Oct-26 23:00N 33°58' W 029°46'0 0.0 1019.7 22.3
2014-Oct-26 22:00N 33°58' W 029°46'2 0.8 1019.5 22.3
2014-Oct-26 20:00N 33°57' W 029°45'0 0.0 1018.8 22.3
2014-Oct-26 17:00N 33°56' W 029°45'2 1.5 1017.7 22.4
2014-Oct-26 16:00N 33°57' W 029°43'1 0.6 1017.9 22.3
2014-Oct-26 15:00N 33°57' W 029°44'0 0.0 1017.9 22.3
2014-Oct-26 14:00N 33°57' W 029°44'2 0.8 1018.4 22.3
2014-Oct-26 12:00N 33°56' W 029°43'0 0.0 1018.9 22.3
2014-Oct-26 10:00N 33°56' W 029°43'1 0.3 1018.5 22.2
2014-Oct-26 08:00N 33°56' W 029°43'2 1.7 1017.9 22.3
2014-Oct-26 07:00N 33°55' W 029°41'0 0.3 1017.6 22.3
2014-Oct-26 06:00N 33°55' W 029°41'1 0.4 1016.7 22.3
2014-Oct-26 04:00N 33°55' W 029°40'1 0.3 1017.4 22.3
2014-Oct-26 02:00N 33°56' W 029°40'2 1.5 1017.9 22.3
2014-Oct-26 01:00N 33°57' W 029°39'0 0.0 1018.1 22.3
2014-Oct-26 00:00N 33°57' W 029°39'1 0.9 1018.1 22.3
2014-Oct-25 23:00N 33°58' W 029°40'2 0.7 1018.1 22.3
2014-Oct-25 20:00N 33°56' W 029°40'0 0.3 1017.0 22.3
2014-Oct-25 19:00N 33°55' W 029°40'0 0.0 1016.7 22.4
2014-Oct-25 18:00N 33°55' W 029°40'0 0.4 1016.6 22.4
2014-Oct-25 17:00N 33°55' W 029°40'1 1.2 1016.7 22.4
2014-Oct-25 16:00N 33°55' W 029°39'1 0.3 1016.8 22.4
2014-Oct-25 14:00N 33°55' W 029°39'1 1.2 1017.4 22.3
2014-Oct-25 13:00N 33°55' W 029°38'0 0.4 1018.0 22.3
2014-Oct-25 12:00N 33°55' W 029°37'0 0.0 1018.1 22.3
2014-Oct-25 11:00N 33°55' W 029°37'1 1.1 1017.8 22.2
2014-Oct-25 10:00N 33°55' W 029°38'1 0.5 1017.7 22.2
2014-Oct-25 08:00N 33°54' W 029°37'0 0.0 1016.3 22.2
2014-Oct-25 07:00N 33°54' W 029°37'0 0.2 1016.0 22.2
2014-Oct-25 06:00N 33°54' W 029°37'1 0.8 1016.0 22.2
2014-Oct-25 05:00N 33°55' W 029°36'0 0.0 1016.0 22.2
2014-Oct-25 04:00N 33°55' W 029°36'1 0.8 1016.2 22.2
2014-Oct-25 03:00N 33°55' W 029°36'1 0.1 1016.4 22.2
2014-Oct-24 23:00N 33°55' W 029°37'0 0.0 1017.4 22.3
2014-Oct-24 22:00N 33°55' W 029°37'2 0.7 1017.2 22.3
2014-Oct-24 19:00N 33°53' W 029°36'1 0.5 1015.7 22.4
2014-Oct-24 18:00N 33°53' W 029°36'1 1.1 1015.4 22.4
2014-Oct-24 17:00N 33°52' W 029°35'1 0.8 1014.9 22.4
2014-Oct-24 16:00N 33°52' W 029°34'1 0.4 1014.7 22.4
2014-Oct-24 14:00N 33°52' W 029°33'1 0.8 1015.2 22.3
2014-Oct-24 13:00N 33°53' W 029°32'0 0.2 1015.6 22.3
2014-Oct-24 12:00N 33°53' W 029°33'0 0.0 1015.9 22.3
2014-Oct-24 11:00N 33°53' W 029°33'1 0.5 1015.5 22.2
2014-Oct-24 08:00N 33°52' W 029°31'0 0.0 1013.6 22.2
2014-Oct-24 07:00N 33°52' W 029°31'2 1.9 1013.4 22.2
2014-Oct-24 06:00N 33°51' W 029°29'1 1.1 1012.8 22.2
2014-Oct-24 05:00N 33°52' W 029°30'0 0.3 1012.5 22.2
2014-Oct-24 04:00N 33°52' W 029°30'0 0.0 1012.7 22.2
2014-Oct-24 03:00N 33°52' W 029°30'0 0.0 1012.9 22.2
2014-Oct-24 02:00N 33°52' W 029°30'1 0.6 1012.7 22.3
2014-Oct-24 00:00N 33°53' W 029°29'1 1.1 1012.9 22.3
2014-Oct-23 23:00N 33°52' W 029°29'0 0.0 1013.1 22.3
2014-Oct-23 22:00N 33°52' W 029°29'1 0.6 1012.8 22.3
2014-Oct-23 20:00N 33°51' W 029°28'0 0.0 1011.4 22.3
2014-Oct-23 19:00N 33°51' W 029°28'0 0.4 1010.6 22.3
2014-Oct-23 18:00N 33°51' W 029°29'2 0.4 1010.1 22.3
2014-Oct-23 14:00N 33°51' W 029°27'1 0.8 1009.6 22.2
2014-Oct-23 13:00N 33°50' W 029°27'1 0.6 1009.8 22.2
2014-Oct-23 12:00N 33°50' W 029°27'0 0.0 1009.9 22.2
2014-Oct-23 11:00N 33°50' W 029°27'0 0.3 1010.1 22.2
2014-Oct-23 10:00N 33°50' W 029°26'0 0.0 1009.7 22.2
2014-Oct-23 07:00N 33°51' W 029°26'0 0.2 1009.2 22.2
2014-Oct-23 06:00N 33°50' W 029°27'0 0.3 1008.9 22.2
2014-Oct-23 05:00N 33°50' W 029°27'0 0.1 1009.3 22.2
2014-Oct-23 03:00N 33°50' W 029°27'2 0.4 1009.6 22.2
2014-Oct-22 22:00N 33°49' W 029°25'0 0.0 1009.6 22.2
2014-Oct-22 21:00N 33°49' W 029°25'1 0.3 1009.2 22.2
2014-Oct-22 19:00N 33°48' W 029°25'1 0.3 1008.1 22.3
2014-Oct-22 17:00N 33°49' W 029°25'0 0.4 1007.8 22.3
2014-Oct-22 16:00N 33°49' W 029°25'0 0.2 1007.3 22.3
2014-Oct-22 15:00N 33°49' W 029°25'1 0.3 1007.4 22.3
2014-Oct-22 13:00N 33°49' W 029°24'1 0.3 1007.7 22.3
2014-Oct-22 11:00N 33°49' W 029°25'1 0.3 1007.5 22.3
2014-Oct-22 09:00N 33°49' W 029°25'1 0.9 1005.9 22.2
2014-Oct-22 08:00N 33°50' W 029°24'0 0.3 1005.2 22.2
2014-Oct-22 07:00N 33°49' W 029°24'0 0.2 1004.7 22.2
2014-Oct-22 05:00N 33°49' W 029°24'0 0.1 1004.4 22.2
2014-Oct-22 03:00N 33°50' W 029°24'2 0.7 1004.5 22.2
2014-Oct-22 00:00N 33°48' W 029°22'0 0.1 1004.7 22.2
2014-Oct-21 23:00N 33°48' W 029°22'0 0.0 1005.0 22.2
2014-Oct-21 22:00N 33°48' W 029°22'1 1.1 1004.7 22.2
2014-Oct-21 21:00N 33°49' W 029°21'1 1.4 1003.9 22.2
2014-Oct-21 20:00N 33°49' W 029°19'0 0.2 1003.3 22.2
2014-Oct-21 19:00N 33°50' W 029°19'1 0.5 1002.8 22.2
2014-Oct-21 17:00N 33°50' W 029°18'1 0.1 1003.1 22.2
2014-Oct-21 12:00N 33°50' W 029°18'3 1.1 1007.0 22.2
2014-Oct-21 09:00N 33°51' W 029°14'0 0.0 1007.7 22.2
2014-Oct-21 08:00N 33°51' W 029°14'0 0.4 1007.9 22.2
2014-Oct-21 07:00N 33°52' W 029°14'1 0.5 1008.0 22.3
2014-Oct-21 06:00N 33°52' W 029°14'1 1.3 1008.2 22.3
2014-Oct-21 05:00N 33°52' W 029°13'0 0.3 1008.5 22.3
2014-Oct-21 04:00N 33°52' W 029°12'   1009.1 22.4

Dump ship's entire track history